sensor_id;sensor_type;location;lat;lon;timestamp;pressure;altitude;pressure_sealevel;temperature;humidity
53758;BME280;39674;59.860;30.672;2023-02-11T00:02:26;100465.34;;;-2.75;100.00
53758;BME280;39674;59.860;30.672;2023-02-11T00:05:02;100457.56;;;-2.76;100.00
53758;BME280;39674;59.860;30.672;2023-02-11T00:07:48;100458.44;;;-2.76;100.00
53758;BME280;39674;59.860;30.672;2023-02-11T00:10:29;100455.00;;;-2.71;100.00
53758;BME280;39674;59.860;30.672;2023-02-11T00:13:05;100453.28;;;-2.71;100.00
53758;BME280;39674;59.860;30.672;2023-02-11T00:15:41;100447.22;;;-2.70;100.00
53758;BME280;39674;59.860;30.672;2023-02-11T00:18:20;100443.78;;;-2.70;100.00
53758;BME280;39674;59.860;30.672;2023-02-11T00:20:59;100440.34;;;-2.74;100.00
53758;BME280;39674;59.860;30.672;2023-02-11T00:23:39;100432.59;;;-2.76;100.00
53758;BME280;39674;59.860;30.672;2023-02-11T00:26:34;100433.44;;;-2.75;100.00
53758;BME280;39674;59.860;30.672;2023-02-11T00:29:12;100425.69;;;-2.80;100.00
53758;BME280;39674;59.860;30.672;2023-02-11T00:31:43;100426.56;;;-2.76;100.00
53758;BME280;39674;59.860;30.672;2023-02-11T00:34:27;100419.66;;;-2.83;100.00
53758;BME280;39674;59.860;30.672;2023-02-11T00:37:04;100424.84;;;-2.83;100.00
53758;BME280;39674;59.860;30.672;2023-02-11T00:39:54;100418.81;;;-2.87;100.00
53758;BME280;39674;59.860;30.672;2023-02-11T00:42:24;100425.72;;;-2.89;100.00
53758;BME280;39674;59.860;30.672;2023-02-11T00:45:46;100418.81;;;-2.87;100.00
53758;BME280;39674;59.860;30.672;2023-02-11T00:48:01;100417.97;;;-2.89;100.00
53758;BME280;39674;59.860;30.672;2023-02-11T00:50:35;100426.56;;;-2.95;100.00
53758;BME280;39674;59.860;30.672;2023-02-11T00:53:08;100411.94;;;-2.94;100.00
53758;BME280;39674;59.860;30.672;2023-02-11T00:56:05;100418.81;;;-2.90;100.00
53758;BME280;39674;59.860;30.672;2023-02-11T00:59:04;100415.41;;;-2.95;100.00
53758;BME280;39674;59.860;30.672;2023-02-11T01:03:37;100409.38;;;-2.99;100.00
53758;BME280;39674;59.860;30.672;2023-02-11T01:04:31;100403.31;;;-2.93;100.00
53758;BME280;39674;59.860;30.672;2023-02-11T01:07:04;100392.13;;;-2.91;100.00
53758;BME280;39674;59.860;30.672;2023-02-11T01:09:43;100405.03;;;-2.86;100.00
53758;BME280;39674;59.860;30.672;2023-02-11T01:12:15;100394.72;;;-2.91;100.00
53758;BME280;39674;59.860;30.672;2023-02-11T01:14:46;100394.72;;;-2.89;100.00
53758;BME280;39674;59.860;30.672;2023-02-11T01:17:31;100383.50;;;-2.91;100.00
53758;BME280;39674;59.860;30.672;2023-02-11T01:20:10;100379.19;;;-2.92;100.00
53758;BME280;39674;59.860;30.672;2023-02-11T01:22:43;100387.81;;;-2.96;100.00
53758;BME280;39674;59.860;30.672;2023-02-11T01:28:12;100375.78;;;-3.00;100.00
53758;BME280;39674;59.860;30.672;2023-02-11T01:31:01;100377.50;;;-3.02;100.00
53758;BME280;39674;59.860;30.672;2023-02-11T01:33:47;100365.44;;;-3.00;100.00
53758;BME280;39674;59.860;30.672;2023-02-11T01:36:51;100368.00;;;-3.03;100.00
53758;BME280;39674;59.860;30.672;2023-02-11T01:39:28;100361.97;;;-3.06;100.00
53758;BME280;39674;59.860;30.672;2023-02-11T01:42:11;100361.97;;;-3.06;100.00
53758;BME280;39674;59.860;30.672;2023-02-11T01:48:09;100357.69;;;-3.11;100.00
53758;BME280;39674;59.860;30.672;2023-02-11T01:50:42;100357.69;;;-3.10;100.00
53758;BME280;39674;59.860;30.672;2023-02-11T01:53:17;100349.94;;;-3.13;100.00
53758;BME280;39674;59.860;30.672;2023-02-11T01:56:07;100353.38;;;-3.17;100.00
53758;BME280;39674;59.860;30.672;2023-02-11T01:58:58;100346.50;;;-3.18;100.00
53758;BME280;39674;59.860;30.672;2023-02-11T02:01:37;100347.38;;;-3.22;100.00
53758;BME280;39674;59.860;30.672;2023-02-11T02:04:15;100335.31;;;-3.23;100.00
53758;BME280;39674;59.860;30.672;2023-02-11T02:07:01;100327.56;;;-3.23;100.00
53758;BME280;39674;59.860;30.672;2023-02-11T02:09:35;100331.00;;;-3.21;100.00
53758;BME280;39674;59.860;30.672;2023-02-11T02:12:11;100328.44;;;-3.21;100.00
53758;BME280;39674;59.860;30.672;2023-02-11T02:15:07;100322.41;;;-3.20;100.00
53758;BME280;39674;59.860;30.672;2023-02-11T02:17:44;100332.75;;;-3.20;100.00
53758;BME280;39674;59.860;30.672;2023-02-11T02:23:32;100323.25;;;-3.29;100.00
53758;BME280;39674;59.860;30.672;2023-02-11T02:27:07;100312.94;;;-3.26;100.00
53758;BME280;39674;59.860;30.672;2023-02-11T02:32:40;100298.28;;;-3.25;100.00
53758;BME280;39674;59.860;30.672;2023-02-11T02:35:23;100297.44;;;-3.27;100.00
53758;BME280;39674;59.860;30.672;2023-02-11T02:37:58;100293.13;;;-3.25;100.00
53758;BME280;39674;59.860;30.672;2023-02-11T02:40:31;100295.72;;;-3.30;100.00
53758;BME280;39674;59.860;30.672;2023-02-11T02:43:05;100288.81;;;-3.28;100.00
53758;BME280;39674;59.860;30.672;2023-02-11T02:45:48;100293.13;;;-3.25;100.00
53758;BME280;39674;59.860;30.672;2023-02-11T02:48:30;100300.00;;;-3.24;100.00
53758;BME280;39674;59.860;30.672;2023-02-11T02:51:09;100289.69;;;-3.30;100.00
53758;BME280;39674;59.860;30.672;2023-02-11T02:53:52;100287.13;;;-3.27;100.00
53758;BME280;39674;59.860;30.672;2023-02-11T02:56:24;100283.66;;;-3.29;100.00
53758;BME280;39674;59.860;30.672;2023-02-11T02:59:10;100283.66;;;-3.29;100.00
53758;BME280;39674;59.860;30.672;2023-02-11T03:01:48;100287.97;;;-3.28;100.00
53758;BME280;39674;59.860;30.672;2023-02-11T03:04:25;100280.22;;;-3.27;100.00
53758;BME280;39674;59.860;30.672;2023-02-11T03:07:08;100277.63;;;-3.25;100.00
53758;BME280;39674;59.860;30.672;2023-02-11T03:09:45;100275.91;;;-3.32;100.00
53758;BME280;39674;59.860;30.672;2023-02-11T03:12:51;100277.63;;;-3.25;100.00
53758;BME280;39674;59.860;30.672;2023-02-11T03:15:36;100276.78;;;-3.27;100.00
53758;BME280;39674;59.860;30.672;2023-02-11T03:18:11;100279.38;;;-3.33;100.00
53758;BME280;39674;59.860;30.672;2023-02-11T03:23:51;100269.03;;;-3.27;100.00
53758;BME280;39674;59.860;30.672;2023-02-11T03:26:33;100263.84;;;-3.24;100.00
53758;BME280;39674;59.860;30.672;2023-02-11T03:29:08;100256.09;;;-3.26;100.00
53758;BME280;39674;59.860;30.672;2023-02-11T03:31:47;100249.22;;;-3.25;100.00
53758;BME280;39674;59.860;30.672;2023-02-11T03:34:20;100254.38;;;-3.22;100.00
53758;BME280;39674;59.860;30.672;2023-02-11T03:37:11;100244.06;;;-3.24;100.00
53758;BME280;39674;59.860;30.672;2023-02-11T03:39:43;100248.34;;;-3.18;100.00
53758;BME280;39674;59.860;30.672;2023-02-11T03:42:16;100249.19;;;-3.14;100.00
53758;BME280;39674;59.860;30.672;2023-02-11T03:44:49;100234.56;;;-3.22;100.00
53758;BME280;39674;59.860;30.672;2023-02-11T03:47:24;100235.41;;;-3.12;100.00
53758;BME280;39674;59.860;30.672;2023-02-11T03:50:13;100232.81;;;-3.09;100.00
53758;BME280;39674;59.860;30.672;2023-02-11T03:52:45;100224.22;;;-3.15;100.00
53758;BME280;39674;59.860;30.672;2023-02-11T03:58:02;100221.59;;;-3.09;100.00
53758;BME280;39674;59.860;30.672;2023-02-11T04:00:35;100213.00;;;-3.14;100.00
53758;BME280;39674;59.860;30.672;2023-02-11T04:03:10;100213.03;;;-3.16;100.00
53758;BME280;39674;59.860;30.672;2023-02-11T04:05:47;100207.00;;;-3.18;100.00
53758;BME280;39674;59.860;30.672;2023-02-11T04:08:20;100198.41;;;-3.20;100.00
53758;BME280;39674;59.860;30.672;2023-02-11T04:10:50;100200.97;;;-3.15;100.00
53758;BME280;39674;59.860;30.672;2023-02-11T04:13:28;100193.25;;;-3.20;100.00
53758;BME280;39674;59.860;30.672;2023-02-11T04:16:12;100184.63;;;-3.16;100.00
53758;BME280;39674;59.860;30.672;2023-02-11T04:18:57;100180.31;;;-3.22;100.00
53758;BME280;39674;59.860;30.672;2023-02-11T04:21:36;100181.16;;;-3.18;100.00
53758;BME280;39674;59.860;30.672;2023-02-11T04:24:05;100172.56;;;-3.17;100.00
53758;BME280;39674;59.860;30.672;2023-02-11T04:26:36;100175.13;;;-3.11;100.00
53758;BME280;39674;59.860;30.672;2023-02-11T04:29:18;100176.00;;;-3.18;100.00
53758;BME280;39674;59.860;30.672;2023-02-11T04:31:49;100169.97;;;-3.15;100.00
53758;BME280;39674;59.860;30.672;2023-02-11T04:34:39;100168.25;;;-3.15;100.00
53758;BME280;39674;59.860;30.672;2023-02-11T04:37:37;100161.34;;;-3.13;100.00
53758;BME280;39674;59.860;30.672;2023-02-11T04:40:38;100159.66;;;-3.18;100.00
53758;BME280;39674;59.860;30.672;2023-02-11T04:43:17;100145.88;;;-3.22;100.00
53758;BME280;39674;59.860;30.672;2023-02-11T04:48:46;100147.59;;;-3.19;100.00
53758;BME280;39674;59.860;30.672;2023-02-11T04:55:13;100139.00;;;-3.20;100.00
53758;BME280;39674;59.860;30.672;2023-02-11T04:58:22;100139.84;;;-3.15;100.00
53758;BME280;39674;59.860;30.672;2023-02-11T05:01:05;100134.66;;;-3.15;100.00
53758;BME280;39674;59.860;30.672;2023-02-11T05:03:37;100136.38;;;-3.11;100.00
53758;BME280;39674;59.860;30.672;2023-02-11T05:22:47;100116.53;;;-3.06;100.00
53758;BME280;39674;59.860;30.672;2023-02-11T05:49:41;100083.88;;;-3.20;100.00
53758;BME280;39674;59.860;30.672;2023-02-11T05:52:25;100076.13;;;-3.16;100.00
53758;BME280;39674;59.860;30.672;2023-02-11T05:56:09;100071.81;;;-3.17;100.00
53758;BME280;39674;59.860;30.672;2023-02-11T05:58:50;100068.38;;;-3.20;100.00
53758;BME280;39674;59.860;30.672;2023-02-11T06:01:22;100070.09;;;-3.18;100.00
53758;BME280;39674;59.860;30.672;2023-02-11T06:10:38;100060.56;;;-3.10;100.00
53758;BME280;39674;59.860;30.672;2023-02-11T06:13:18;100050.25;;;-3.13;100.00
53758;BME280;39674;59.860;30.672;2023-02-11T06:16:13;100044.22;;;-3.12;100.00
53758;BME280;39674;59.860;30.672;2023-02-11T06:19:09;100039.91;;;-3.13;100.00
53758;BME280;39674;59.860;30.672;2023-02-11T06:22:24;100047.66;;;-3.13;100.00
53758;BME280;39674;59.860;30.672;2023-02-11T06:25:43;100038.19;;;-3.11;100.00
53758;BME280;39674;59.860;30.672;2023-02-11T06:28:39;100033.88;;;-3.07;100.00
53758;BME280;39674;59.860;30.672;2023-02-11T06:31:31;100035.59;;;-3.06;100.00
53758;BME280;39674;59.860;30.672;2023-02-11T06:37:44;100030.41;;;-3.01;100.00
53758;BME280;39674;59.860;30.672;2023-02-11T07:50:30;99941.56;;;-2.88;100.00
53758;BME280;39674;59.860;30.672;2023-02-11T07:53:46;99938.09;;;-2.87;100.00
53758;BME280;39674;59.860;30.672;2023-02-11T07:56:55;99936.41;;;-2.88;100.00
53758;BME280;39674;59.860;30.672;2023-02-11T07:59:35;99937.22;;;-2.86;100.00
53758;BME280;39674;59.860;30.672;2023-02-11T08:02:46;99937.19;;;-2.81;100.00
53758;BME280;39674;59.860;30.672;2023-02-11T08:05:59;99940.63;;;-2.79;100.00
53758;BME280;39674;59.860;30.672;2023-02-11T08:09:13;99940.59;;;-2.76;100.00
53758;BME280;39674;59.860;30.672;2023-02-11T08:11:43;99938.81;;;-2.72;100.00
53758;BME280;39674;59.860;30.672;2023-02-11T08:14:37;99942.25;;;-2.70;100.00
53758;BME280;39674;59.860;30.672;2023-02-11T08:17:11;99948.31;;;-2.73;100.00
53758;BME280;39674;59.860;30.672;2023-02-11T08:20:16;99934.53;;;-2.74;100.00
53758;BME280;39674;59.860;30.672;2023-02-11T08:23:13;99934.53;;;-2.74;100.00
53758;BME280;39674;59.860;30.672;2023-02-11T08:26:29;99931.06;;;-2.72;100.00
53758;BME280;39674;59.860;30.672;2023-02-11T08:29:46;99921.59;;;-2.72;100.00
53758;BME280;39674;59.860;30.672;2023-02-11T08:32:12;99922.50;;;-2.75;100.00
53758;BME280;39674;59.860;30.672;2023-02-11T08:35:02;99923.34;;;-2.74;100.00
53758;BME280;39674;59.860;30.672;2023-02-11T08:38:13;99917.34;;;-2.78;100.00
53758;BME280;39674;59.860;30.672;2023-02-11T08:40:53;99913.84;;;-2.74;100.00
53758;BME280;39674;59.860;30.672;2023-02-11T08:43:51;99914.75;;;-2.75;100.00
53758;BME280;39674;59.860;30.672;2023-02-11T08:46:59;99907.00;;;-2.75;100.00
53758;BME280;39674;59.860;30.672;2023-02-11T08:53:40;99907.78;;;-2.68;100.00
53758;BME280;39674;59.860;30.672;2023-02-11T08:56:27;99907.78;;;-2.68;100.00
53758;BME280;39674;59.860;30.672;2023-02-11T08:59:27;99903.44;;;-2.67;100.00
53758;BME280;39674;59.860;30.672;2023-02-11T09:02:32;99901.72;;;-2.65;100.00
53758;BME280;39674;59.860;30.672;2023-02-11T09:05:45;99906.88;;;-2.62;100.00
53758;BME280;39674;59.860;30.672;2023-02-11T09:15:18;99908.50;;;-2.55;100.00
53758;BME280;39674;59.860;30.672;2023-02-11T09:22:15;99907.53;;;-2.48;100.00
53758;BME280;39674;59.860;30.672;2023-02-11T09:26:41;99907.47;;;-2.40;100.00
53758;BME280;39674;59.860;30.672;2023-02-11T09:28:37;99909.16;;;-2.36;100.00
53758;BME280;39674;59.860;30.672;2023-02-11T09:31:30;99911.72;;;-2.34;100.00
53758;BME280;39674;59.860;30.672;2023-02-11T09:34:59;99906.53;;;-2.31;100.00
53758;BME280;39674;59.860;30.672;2023-02-11T09:38:17;99903.00;;;-2.27;100.00
53758;BME280;39674;59.860;30.672;2023-02-11T09:41:11;99891.78;;;-2.26;100.00
53758;BME280;39674;59.860;30.672;2023-02-11T09:47:15;99892.59;;;-2.21;100.00
53758;BME280;39674;59.860;30.672;2023-02-11T09:50:08;99895.19;;;-2.21;100.00
53758;BME280;39674;59.860;30.672;2023-02-11T09:52:51;99892.56;;;-2.18;100.00
53758;BME280;39674;59.860;30.672;2023-02-11T09:55:29;99897.69;;;-2.15;100.00
53758;BME280;39674;59.860;30.672;2023-02-11T09:58:15;99890.75;;;-2.10;100.00
53758;BME280;39674;59.860;30.672;2023-02-11T10:01:18;99888.13;;;-2.08;100.00
53758;BME280;39674;59.860;30.672;2023-02-11T10:04:13;99885.50;;;-2.06;100.00
53758;BME280;39674;59.860;30.672;2023-02-11T10:06:55;99890.72;;;-2.08;100.00
53758;BME280;39674;59.860;30.672;2023-02-11T10:09:37;99891.56;;;-2.07;100.00
53758;BME280;39674;59.860;30.672;2023-02-11T10:12:31;99901.00;;;-2.03;100.00
53758;BME280;39674;59.860;30.672;2023-02-11T10:15:40;99901.00;;;-2.03;100.00
53758;BME280;39674;59.860;30.672;2023-02-11T10:19:01;99894.88;;;-1.98;100.00
53758;BME280;39674;59.860;30.672;2023-02-11T10:22:09;99887.94;;;-1.94;100.00
53758;BME280;39674;59.860;30.672;2023-02-11T10:24:51;99888.78;;;-1.92;100.00
53758;BME280;39674;59.860;30.672;2023-02-11T10:27:45;99893.88;;;-1.86;100.00
53758;BME280;39674;59.860;30.672;2023-02-11T10:30:31;99888.56;;;-1.78;100.00
53758;BME280;39674;59.860;30.672;2023-02-11T10:33:14;99884.25;;;-1.76;100.00
53758;BME280;39674;59.860;30.672;2023-02-11T10:35:56;99883.44;;;-1.80;100.00
53758;BME280;39674;59.860;30.672;2023-02-11T10:38:35;99888.63;;;-1.80;100.00
53758;BME280;39674;59.860;30.672;2023-02-11T10:41:20;99889.44;;;-1.78;100.00
53758;BME280;39674;59.860;30.672;2023-02-11T10:43:54;99891.22;;;-1.81;100.00
53758;BME280;39674;59.860;30.672;2023-02-11T10:46:45;99889.50;;;-1.82;100.00
53758;BME280;39674;59.860;30.672;2023-02-11T10:52:25;99904.16;;;-1.80;100.00
53758;BME280;39674;59.860;30.672;2023-02-11T10:55:13;99911.03;;;-1.79;100.00
53758;BME280;39674;59.860;30.672;2023-02-11T10:57:55;99912.78;;;-1.81;100.00
53758;BME280;39674;59.860;30.672;2023-02-11T11:00:39;99909.31;;;-1.80;100.00
53758;BME280;39674;59.860;30.672;2023-02-11T11:03:14;99910.97;;;-1.75;100.00
53758;BME280;39674;59.860;30.672;2023-02-11T11:05:49;99915.31;;;-1.76;100.00
53758;BME280;39674;59.860;30.672;2023-02-11T11:08:54;99914.47;;;-1.76;100.00
53758;BME280;39674;59.860;30.672;2023-02-11T11:11:37;99917.00;;;-1.73;100.00
53758;BME280;39674;59.860;30.672;2023-02-11T11:14:33;99910.03;;;-1.67;100.00
53758;BME280;39674;59.860;30.672;2023-02-11T11:17:14;99917.69;;;-1.62;100.00
53758;BME280;39674;59.860;30.672;2023-02-11T11:20:18;99921.97;;;-1.58;100.00
53758;BME280;39674;59.860;30.672;2023-02-11T11:23:08;99925.31;;;-1.51;100.00
53758;BME280;39674;59.860;30.672;2023-02-11T11:25:55;99926.97;;;-1.46;100.00
53758;BME280;39674;59.860;30.672;2023-02-11T11:28:30;99931.97;;;-1.33;100.00
53758;BME280;39674;59.860;30.672;2023-02-11T11:31:00;99933.53;;;-1.21;100.00
53758;BME280;39674;59.860;30.672;2023-02-11T11:33:33;99938.59;;;-1.14;100.00
53758;BME280;39674;59.860;30.672;2023-02-11T11:36:05;99934.03;;;-0.99;100.00
53758;BME280;39674;59.860;30.672;2023-02-11T11:38:43;99941.78;;;-0.98;100.00
53758;BME280;39674;59.860;30.672;2023-02-11T11:41:23;99956.47;;;-0.97;100.00
53758;BME280;39674;59.860;30.672;2023-02-11T11:43:59;99959.97;;;-0.99;100.00
53758;BME280;39674;59.860;30.672;2023-02-11T11:46:32;99972.13;;;-1.04;100.00
53758;BME280;39674;59.860;30.672;2023-02-11T11:49:09;99979.19;;;-1.16;100.00
53758;BME280;39674;59.860;30.672;2023-02-11T11:51:50;99980.13;;;-1.20;100.00
53758;BME280;39674;59.860;30.672;2023-02-11T11:54:28;99984.63;;;-1.31;100.00
53758;BME280;39674;59.860;30.672;2023-02-11T11:57:01;99981.25;;;-1.38;100.00
53758;BME280;39674;59.860;30.672;2023-02-11T11:59:42;99991.69;;;-1.42;100.00
53758;BME280;39674;59.860;30.672;2023-02-11T12:02:25;100004.63;;;-1.42;100.00
53758;BME280;39674;59.860;30.672;2023-02-11T12:05:03;100010.75;;;-1.50;100.00
53758;BME280;39674;59.860;30.672;2023-02-11T12:07:44;100017.72;;;-1.52;100.00
53758;BME280;39674;59.860;30.672;2023-02-11T12:10:30;100033.22;;;-1.50;100.00
53758;BME280;39674;59.860;30.672;2023-02-11T12:13:13;100027.22;;;-1.51;100.00
53758;BME280;39674;59.860;30.672;2023-02-11T12:15:57;100047.09;;;-1.56;100.00
53758;BME280;39674;59.860;30.672;2023-02-11T12:18:36;100047.09;;;-1.56;100.00
53758;BME280;39674;59.860;30.672;2023-02-11T12:21:19;100055.78;;;-1.60;100.00
53758;BME280;39674;59.860;30.672;2023-02-11T12:24:05;100065.34;;;-1.64;100.00
53758;BME280;39674;59.860;30.672;2023-02-11T12:26:46;100065.31;;;-1.60;100.00
53758;BME280;39674;59.860;30.672;2023-02-11T12:29:28;100074.78;;;-1.61;100.00
53758;BME280;39674;59.860;30.672;2023-02-11T12:32:12;100079.94;;;-1.58;100.00
53758;BME280;39674;59.860;30.672;2023-02-11T12:34:53;100088.53;;;-1.56;100.00
53758;BME280;39674;59.860;30.672;2023-02-11T12:37:41;100091.13;;;-1.56;100.00
53758;BME280;39674;59.860;30.672;2023-02-11T12:40:24;100102.41;;;-1.57;100.00
53758;BME280;39674;59.860;30.672;2023-02-11T12:42:58;100104.97;;;-1.58;100.00
53758;BME280;39674;59.860;30.672;2023-02-11T12:45:57;100113.66;;;-1.63;100.00
53758;BME280;39674;59.860;30.672;2023-02-11T12:48:42;100101.59;;;-1.64;100.00
53758;BME280;39674;59.860;30.672;2023-02-11T12:51:42;100113.69;;;-1.66;100.00
53758;BME280;39674;59.860;30.672;2023-02-11T12:54:33;100110.25;;;-1.66;100.00
53758;BME280;39674;59.860;30.672;2023-02-11T12:57:09;100117.19;;;-1.67;100.00
53758;BME280;39674;59.860;30.672;2023-02-11T12:59:48;100119.75;;;-1.68;100.00
53758;BME280;39674;59.860;30.672;2023-02-11T13:06:02;100144.00;;;-1.75;100.00
53758;BME280;39674;59.860;30.672;2023-02-11T13:08:50;100146.59;;;-1.77;100.00
53758;BME280;39674;59.860;30.672;2023-02-11T13:11:41;100150.03;;;-1.73;100.00
53758;BME280;39674;59.860;30.672;2023-02-11T13:14:21;100153.44;;;-1.67;100.00
53758;BME280;39674;59.860;30.672;2023-02-11T13:16:57;100154.22;;;-1.60;100.00
53758;BME280;39674;59.860;30.672;2023-02-11T13:19:37;100162.81;;;-1.58;100.00
53758;BME280;39674;59.860;30.672;2023-02-11T13:22:14;100167.16;;;-1.60;100.00
53758;BME280;39674;59.860;30.672;2023-02-11T13:24:49;100168.06;;;-1.64;100.00
53758;BME280;39674;59.860;30.672;2023-02-11T13:27:31;100178.50;;;-1.70;100.00
53758;BME280;39674;59.860;30.672;2023-02-11T13:30:20;100189.72;;;-1.73;100.00
53758;BME280;39674;59.860;30.672;2023-02-11T13:33:04;100195.81;;;-1.77;100.00
53758;BME280;39674;59.860;30.672;2023-02-11T13:35:41;100207.88;;;-1.79;100.00
53758;BME280;39674;59.860;30.672;2023-02-11T13:38:40;100219.13;;;-1.82;100.00
53758;BME280;39674;59.860;30.672;2023-02-11T13:44:27;100240.75;;;-1.89;100.00
53758;BME280;39674;59.860;30.672;2023-02-11T13:47:38;100239.06;;;-1.93;100.00
53758;BME280;39674;59.860;30.672;2023-02-11T13:50:53;100240.84;;;-1.98;100.00
53758;BME280;39674;59.860;30.672;2023-02-11T13:53:46;100246.06;;;-2.04;100.00
53758;BME280;39674;59.860;30.672;2023-02-11T13:56:36;100265.06;;;-2.08;100.00
53758;BME280;39674;59.860;30.672;2023-02-11T14:02:18;100272.00;;;-2.14;100.00
53758;BME280;39674;59.860;30.672;2023-02-11T14:05:36;100264.28;;;-2.20;100.00
53758;BME280;39674;59.860;30.672;2023-02-11T14:08:51;100271.19;;;-2.23;100.00
53758;BME280;39674;59.860;30.672;2023-02-11T14:30:01;100305.78;;;-2.43;100.00
53758;BME280;39674;59.860;30.672;2023-02-11T15:47:38;100520.38;;;-3.51;100.00
53758;BME280;39674;59.860;30.672;2023-02-11T15:50:29;100527.25;;;-3.46;100.00
53758;BME280;39674;59.860;30.672;2023-02-11T15:53:18;100537.59;;;-3.44;100.00
53758;BME280;39674;59.860;30.672;2023-02-11T15:56:07;100546.22;;;-3.41;100.00
53758;BME280;39674;59.860;30.672;2023-02-11T15:59:24;100543.63;;;-3.36;100.00
53758;BME280;39674;59.860;30.672;2023-02-11T16:02:08;100558.31;;;-3.33;100.00
53758;BME280;39674;59.860;30.672;2023-02-11T16:04:49;100561.75;;;-3.34;100.00
53758;BME280;39674;59.860;30.672;2023-02-11T16:07:36;100572.06;;;-3.34;100.00
53758;BME280;39674;59.860;30.672;2023-02-11T16:10:29;100576.34;;;-3.35;100.00
53758;BME280;39674;59.860;30.672;2023-02-11T16:13:25;100597.03;;;-3.40;100.00
53758;BME280;39674;59.860;30.672;2023-02-11T16:16:45;100591.84;;;-3.43;100.00
53758;BME280;39674;59.860;30.672;2023-02-11T16:19:19;100591.81;;;-3.46;100.00
53758;BME280;39674;59.860;30.672;2023-02-11T16:21:55;100584.06;;;-3.47;100.00
53758;BME280;39674;59.860;30.672;2023-02-11T16:24:31;100593.50;;;-3.51;100.00
53758;BME280;39674;59.860;30.672;2023-02-11T16:27:21;100600.38;;;-3.56;100.00
53758;BME280;39674;59.860;30.672;2023-02-11T16:29:58;100608.13;;;-3.58;100.00
53758;BME280;39674;59.860;30.672;2023-02-11T16:32:43;100611.56;;;-3.60;100.00
53758;BME280;39674;59.860;30.672;2023-02-11T16:35:29;100617.56;;;-3.63;100.00
53758;BME280;39674;59.860;30.672;2023-02-11T16:38:27;100625.28;;;-3.64;100.00
53758;BME280;39674;59.860;30.672;2023-02-11T16:41:04;100632.19;;;-3.66;100.00
53758;BME280;39674;59.860;30.672;2023-02-11T16:44:01;100640.75;;;-3.71;100.00
53758;BME280;39674;59.860;30.672;2023-02-11T16:46:43;100649.34;;;-3.73;100.00
53758;BME280;39674;59.860;30.672;2023-02-11T16:50:03;100666.53;;;-3.77;100.00
53758;BME280;39674;59.860;30.672;2023-02-11T16:57:53;100700.00;;;-3.89;100.00
53758;BME280;39674;59.860;30.672;2023-02-11T17:01:23;100724.06;;;-3.92;100.00
53758;BME280;39674;59.860;30.672;2023-02-11T17:05:16;100725.75;;;-3.94;100.00
53758;BME280;39674;59.860;30.672;2023-02-11T17:07:37;100742.06;;;-3.96;100.00
53758;BME280;39674;59.860;30.672;2023-02-11T17:24:41;100778.09;;;-4.09;100.00
53758;BME280;39674;59.860;30.672;2023-02-11T17:27:46;100790.97;;;-4.10;100.00
53758;BME280;39674;59.860;30.672;2023-02-11T17:31:05;100796.97;;;-4.13;100.00
53758;BME280;39674;59.860;30.672;2023-02-11T17:41:48;100819.22;;;-4.24;100.00
53758;BME280;39674;59.860;30.672;2023-02-11T17:44:28;100832.91;;;-4.28;100.00
53758;BME280;39674;59.860;30.672;2023-02-11T17:50:46;100856.09;;;-4.31;100.00
